createdAt,value
2019-03-02T00:01:24.092Z,4.90
2019-03-02T00:03:57.597Z,4.90
2019-03-02T00:06:26.896Z,5.00
2019-03-02T00:08:56.692Z,5.00
2019-03-02T00:11:26.870Z,5.00
2019-03-02T00:13:55.824Z,5.20
2019-03-02T00:16:25.057Z,5.30
2019-03-02T00:18:53.955Z,5.30
2019-03-02T00:21:23.104Z,5.20
2019-03-02T00:23:54.250Z,5.20
2019-03-02T00:26:22.824Z,5.20
2019-03-02T00:28:52.167Z,5.20
2019-03-02T00:31:21.220Z,5.20
2019-03-02T00:33:53.759Z,5.10
2019-03-02T00:36:21.900Z,5.10
2019-03-02T00:38:51.376Z,5.20
2019-03-02T00:41:21.080Z,5.20
2019-03-02T00:43:50.040Z,5.20
2019-03-02T00:46:20.723Z,5.20
2019-03-02T00:48:50.023Z,5.20
2019-03-02T00:51:19.414Z,5.20
2019-03-02T00:53:48.299Z,5.20
2019-03-02T00:56:17.407Z,5.10
2019-03-02T00:58:46.267Z,5.10
2019-03-02T01:01:15.492Z,5.10
2019-03-02T01:03:47.725Z,5.00
2019-03-02T01:06:16.038Z,4.90
2019-03-02T01:08:45.572Z,4.90
2019-03-02T01:11:14.568Z,4.80
2019-03-02T01:13:44.489Z,4.80
2019-03-02T01:16:13.319Z,4.90
2019-03-02T01:18:43.438Z,4.80
2019-03-02T01:21:13.068Z,4.80
2019-03-02T01:23:42.211Z,4.90
2019-03-02T01:26:11.775Z,4.90
2019-03-02T01:28:41.669Z,5.00
2019-03-02T01:31:12.311Z,5.00
2019-03-02T01:33:42.259Z,4.90
2019-03-02T01:36:11.963Z,4.90
2019-03-02T01:38:41.165Z,4.90
2019-03-02T01:41:10.019Z,4.80
2019-03-02T01:43:40.492Z,4.80
2019-03-02T01:46:10.687Z,4.70
2019-03-02T01:48:39.996Z,4.70
2019-03-02T01:51:09.390Z,4.70
2019-03-02T01:53:41.810Z,4.60
2019-03-02T01:56:09.435Z,4.40
2019-03-02T01:58:38.504Z,4.30
2019-03-02T02:01:07.681Z,4.30
2019-03-02T02:03:36.911Z,4.40
2019-03-02T02:06:07.294Z,4.40
2019-03-02T02:08:37.255Z,4.50
2019-03-02T02:11:06.551Z,4.40
2019-03-02T02:13:38.879Z,4.50
2019-03-02T02:16:06.851Z,4.50
2019-03-02T02:18:35.897Z,4.50
2019-03-02T02:21:04.848Z,4.60
2019-03-02T02:23:34.380Z,4.50
2019-03-02T02:26:03.507Z,4.60
2019-03-02T02:28:33.465Z,4.50
2019-03-02T02:31:06.184Z,4.50
2019-03-02T02:33:42.685Z,4.50
2019-03-02T02:36:05.661Z,4.60
2019-03-02T02:38:34.901Z,4.70
2019-03-02T02:41:04.802Z,4.70
2019-03-02T02:43:34.544Z,4.70
2019-03-02T02:46:06.055Z,4.70
2019-03-02T02:48:35.191Z,4.60
2019-03-02T02:51:09.734Z,4.70
2019-03-02T02:53:40.214Z,4.70
2019-03-02T02:56:07.269Z,4.80
2019-03-02T02:58:36.433Z,4.80
2019-03-02T03:01:05.679Z,4.90
2019-03-02T03:03:34.752Z,4.90
2019-03-02T03:06:03.654Z,4.90
2019-03-02T03:08:45.956Z,4.90
2019-03-02T03:11:16.577Z,5.00
2019-03-02T03:13:46.360Z,4.90
2019-03-02T03:16:16.971Z,4.70
2019-03-02T03:18:52.034Z,4.70
2019-03-02T03:21:17.952Z,4.70
2019-03-02T03:23:46.777Z,4.70
2019-03-02T03:26:16.223Z,4.70
2019-03-02T03:28:45.784Z,4.70
2019-03-02T03:31:23.030Z,4.70
2019-03-02T03:33:47.185Z,4.80
2019-03-02T03:36:17.161Z,4.90
2019-03-02T03:38:46.366Z,4.80
2019-03-02T03:41:16.022Z,4.70
2019-03-02T03:43:45.599Z,4.60
2019-03-02T03:46:18.083Z,4.60
2019-03-02T03:48:45.621Z,4.70
2019-03-02T03:51:15.366Z,4.90
2019-03-02T03:53:44.755Z,5.00
2019-03-02T03:56:13.891Z,5.00
2019-03-02T03:58:43.117Z,5.00
2019-03-02T04:01:17.108Z,5.10
2019-03-02T04:03:47.200Z,5.30
2019-03-02T04:06:14.801Z,5.30
2019-03-02T04:08:44.416Z,5.30
2019-03-02T04:11:13.630Z,5.20
2019-03-02T04:13:46.375Z,5.20
2019-03-02T04:16:16.368Z,5.20
2019-03-02T04:18:57.214Z,5.20
2019-03-02T04:21:39.890Z,5.30
2019-03-02T04:24:09.073Z,5.10
2019-03-02T04:26:38.788Z,5.10
2019-03-02T04:29:10.073Z,5.00
2019-03-02T04:31:39.282Z,5.10
2019-03-02T04:34:08.845Z,5.00
2019-03-02T04:36:37.727Z,5.00
2019-03-02T04:39:09.483Z,5.00
2019-03-02T04:41:39.660Z,4.90
2019-03-02T04:44:09.496Z,5.00
2019-03-02T04:46:38.759Z,5.00
2019-03-02T04:49:10.974Z,4.90
2019-03-02T04:51:39.882Z,5.00
2019-03-02T04:54:09.732Z,5.00
2019-03-02T04:56:38.735Z,5.00
2019-03-02T04:59:08.836Z,5.10
2019-03-02T05:01:38.999Z,5.10
2019-03-02T05:04:09.254Z,5.10
2019-03-02T05:06:38.810Z,5.10
2019-03-02T05:09:08.773Z,5.00
2019-03-02T05:11:39.314Z,5.00
2019-03-02T05:14:08.526Z,4.90
2019-03-02T05:16:38.012Z,4.90
2019-03-02T05:19:07.257Z,5.00
2019-03-02T05:21:39.929Z,5.00
2019-03-02T05:24:09.207Z,5.00
2019-03-02T05:26:38.599Z,5.00
2019-03-02T05:29:07.662Z,5.10
2019-03-02T05:31:37.533Z,5.10
2019-03-02T05:34:08.143Z,5.10
2019-03-02T05:36:38.051Z,5.10
2019-03-02T05:39:07.602Z,5.10
2019-03-02T05:41:39.177Z,5.20
2019-03-02T05:44:07.991Z,5.20
2019-03-02T05:46:37.370Z,5.10
2019-03-02T05:49:06.800Z,5.00
2019-03-02T05:51:39.008Z,5.00
2019-03-02T05:54:07.617Z,4.90
2019-03-02T05:56:36.657Z,4.80
2019-03-02T05:59:05.772Z,4.70
2019-03-02T06:01:36.724Z,4.70
2019-03-02T06:04:06.259Z,4.80
2019-03-02T06:06:35.419Z,4.90
2019-03-02T06:09:07.996Z,4.90
2019-03-02T06:11:39.320Z,5.00
2019-03-02T06:14:08.708Z,5.10
2019-03-02T06:16:37.829Z,5.20
2019-03-02T06:19:07.585Z,5.10
2019-03-02T06:21:37.123Z,5.10
2019-03-02T06:24:06.580Z,5.10
2019-03-02T06:26:36.687Z,5.20
2019-03-02T06:29:06.052Z,5.20
2019-03-02T06:31:34.935Z,5.20
2019-03-02T06:34:04.580Z,5.20
2019-03-02T06:36:33.492Z,5.20
2019-03-02T06:39:03.851Z,5.30
2019-03-02T06:41:34.089Z,5.30
2019-03-02T06:44:07.139Z,5.40
2019-03-02T06:46:36.468Z,5.30
2019-03-02T06:49:07.486Z,5.40
2019-03-02T06:51:36.307Z,5.40
2019-03-02T06:54:08.930Z,5.30
2019-03-02T06:56:39.425Z,5.30
2019-03-02T06:59:07.990Z,5.30
2019-03-02T07:01:37.618Z,5.40
2019-03-02T07:04:07.262Z,5.40
2019-03-02T07:06:37.310Z,5.40
2019-03-02T07:09:09.525Z,5.50
2019-03-02T07:11:38.800Z,5.50
2019-03-02T07:14:08.403Z,5.70
2019-03-02T07:16:37.603Z,5.70
2019-03-02T07:19:40.995Z,5.70
2019-03-02T07:22:13.561Z,5.70
2019-03-02T07:24:42.368Z,5.80
2019-03-02T07:27:11.594Z,5.70
2019-03-02T07:29:41.087Z,5.80
2019-03-02T07:32:10.160Z,5.90
2019-03-02T07:34:40.734Z,6.00
2019-03-02T07:37:10.258Z,6.10
2019-03-02T07:39:39.687Z,6.10
2019-03-02T07:42:08.895Z,6.20
2019-03-02T07:44:38.107Z,6.30
2019-03-02T07:47:07.500Z,6.20
2019-03-02T07:49:36.723Z,6.40
2019-03-02T07:52:06.196Z,6.50
2019-03-02T07:54:38.763Z,6.70
2019-03-02T07:57:08.743Z,6.90
2019-03-02T07:59:37.431Z,6.80
2019-03-02T08:02:07.376Z,6.80
2019-03-02T08:04:38.523Z,6.80
2019-03-02T08:07:08.244Z,6.90
2019-03-02T08:09:38.204Z,6.90
2019-03-02T08:12:07.768Z,7.00
2019-03-02T08:14:37.167Z,7.10
2019-03-02T08:17:09.757Z,6.90
2019-03-02T08:19:38.173Z,6.80
2019-03-02T08:22:07.939Z,6.90
2019-03-02T08:24:40.233Z,7.00
2019-03-02T08:27:10.438Z,7.30
2019-03-02T08:29:39.569Z,7.30
2019-03-02T08:32:10.385Z,7.30
2019-03-02T08:34:42.879Z,7.50
2019-03-02T08:37:10.193Z,7.60
2019-03-02T08:39:42.824Z,7.80
2019-03-02T08:42:12.140Z,7.80
2019-03-02T08:44:42.014Z,7.80
2019-03-02T08:47:11.180Z,7.90
2019-03-02T08:49:42.800Z,7.70
2019-03-02T08:52:12.383Z,7.70
2019-03-02T08:54:41.994Z,7.80
2019-03-02T08:57:11.555Z,7.90
2019-03-02T08:59:42.203Z,8.00
2019-03-02T09:02:11.593Z,7.90
2019-03-02T09:04:41.405Z,8.00
2019-03-02T09:07:11.418Z,8.00
2019-03-02T09:09:41.916Z,7.90
2019-03-02T09:12:11.568Z,8.10
2019-03-02T09:14:41.064Z,8.10
2019-03-02T09:17:14.018Z,8.10
2019-03-02T09:19:41.859Z,8.10
2019-03-02T09:22:11.525Z,8.30
2019-03-02T09:24:40.325Z,8.50
2019-03-02T09:27:09.416Z,8.70
2019-03-02T09:29:38.816Z,8.90
2019-03-02T09:32:10.927Z,9.20
2019-03-02T09:34:40.487Z,9.40
2019-03-02T09:37:10.299Z,9.50
2019-03-02T09:39:39.316Z,9.70
2019-03-02T09:42:08.492Z,10.40
2019-03-02T09:44:38.220Z,10.90
2019-03-02T09:47:09.088Z,11.00
2019-03-02T09:49:38.473Z,10.80
2019-03-02T09:52:08.067Z,10.30
2019-03-02T09:54:37.988Z,10.00
2019-03-02T09:57:06.974Z,9.90
2019-03-02T09:59:36.403Z,9.60
2019-03-02T10:02:05.335Z,9.60
2019-03-02T10:04:35.896Z,9.60
2019-03-02T10:07:05.893Z,9.60
2019-03-02T10:09:35.393Z,9.60
2019-03-02T10:12:04.356Z,9.50
2019-03-02T10:14:35.023Z,9.00
2019-03-02T10:17:04.255Z,9.00
2019-03-02T10:19:34.344Z,8.90
2019-03-02T10:22:03.531Z,9.00
2019-03-02T10:24:32.713Z,8.80
2019-03-02T10:27:01.920Z,8.60
2019-03-02T10:29:32.413Z,8.50
2019-03-02T10:32:04.374Z,8.70
2019-03-02T10:34:33.507Z,8.90
2019-03-02T10:37:07.359Z,8.90
2019-03-02T10:39:35.503Z,9.00
2019-03-02T10:42:05.039Z,9.10
2019-03-02T10:44:34.212Z,9.40
2019-03-02T10:47:03.715Z,9.30
2019-03-02T10:49:33.335Z,9.20
2019-03-02T10:52:02.837Z,9.40
2019-03-02T10:54:34.774Z,9.40
2019-03-02T10:57:02.718Z,9.40
2019-03-02T10:59:32.605Z,9.60
2019-03-02T11:02:01.960Z,10.00
2019-03-02T11:04:36.956Z,10.30
2019-03-02T11:07:24.092Z,10.30
2019-03-02T11:10:13.013Z,10.10
2019-03-02T11:12:58.357Z,10.40
2019-03-02T11:15:43.671Z,10.70
2019-03-02T11:18:27.163Z,10.80
2019-03-02T11:21:05.040Z,10.70
2019-03-02T11:23:40.496Z,10.90
2019-03-02T11:26:37.753Z,11.30
2019-03-02T11:29:21.114Z,11.60
2019-03-02T11:32:04.418Z,12.00
2019-03-02T11:34:40.581Z,12.00
2019-03-02T11:37:28.577Z,12.00
2019-03-02T11:40:14.849Z,12.10
2019-03-02T11:42:53.432Z,12.70
2019-03-02T11:45:38.324Z,13.10
2019-03-02T11:48:21.423Z,13.10
2019-03-02T11:51:06.769Z,13.00
2019-03-02T11:53:52.106Z,12.80
2019-03-02T11:56:47.688Z,12.80
2019-03-02T11:59:29.994Z,12.90
2019-03-02T12:02:23.847Z,12.70
2019-03-02T12:05:04.132Z,12.30
2019-03-02T12:07:50.643Z,12.10
2019-03-02T12:10:38.833Z,12.10
2019-03-02T12:13:27.740Z,12.00
2019-03-02T12:16:16.289Z,11.80
2019-03-02T12:19:07.608Z,11.90
2019-03-02T12:22:00.363Z,11.80
2019-03-02T12:24:54.673Z,11.60
2019-03-02T12:27:50.459Z,11.40
2019-03-02T12:30:27.202Z,11.30
2019-03-02T12:33:06.564Z,11.40
2019-03-02T12:36:07.527Z,11.40
2019-03-02T12:38:58.636Z,11.40
2019-03-02T12:41:48.950Z,11.60
2019-03-02T12:44:38.697Z,11.80
2019-03-02T12:47:20.487Z,11.80
2019-03-02T12:49:59.199Z,11.90
2019-03-02T12:52:53.407Z,11.60
2019-03-02T12:55:41.645Z,11.30
2019-03-02T12:58:15.959Z,11.20
2019-03-02T13:00:55.075Z,11.00
2019-03-02T13:03:52.103Z,11.00
2019-03-02T13:06:46.185Z,11.10
2019-03-02T13:09:41.053Z,11.10
2019-03-02T13:12:39.090Z,11.30
2019-03-02T13:15:26.543Z,11.60
2019-03-02T13:18:15.481Z,11.70
2019-03-02T13:20:53.992Z,11.60
2019-03-02T13:23:33.115Z,11.30
2019-03-02T13:26:27.715Z,11.30
2019-03-02T13:29:12.932Z,11.40
2019-03-02T13:31:59.228Z,11.40
2019-03-02T13:34:48.235Z,11.30
2019-03-02T13:37:26.577Z,11.60
2019-03-02T13:40:13.628Z,11.70
2019-03-02T13:42:52.117Z,11.80
2019-03-02T13:45:58.930Z,11.80
2019-03-02T13:48:44.929Z,11.70
2019-03-02T13:51:42.058Z,11.50
2019-03-02T13:54:17.467Z,11.60
2019-03-02T13:57:04.720Z,11.20
2019-03-02T13:59:52.292Z,11.20
2019-03-02T14:02:39.845Z,11.10
2019-03-02T14:05:34.545Z,11.30
2019-03-02T14:08:20.299Z,11.60
2019-03-02T14:11:14.721Z,11.30
2019-03-02T14:13:58.006Z,11.80
2019-03-02T14:16:55.336Z,12.10
2019-03-02T14:20:02.082Z,12.10
2019-03-02T14:22:44.881Z,12.20
2019-03-02T14:25:22.755Z,12.10
2019-03-02T14:28:12.280Z,11.70
2019-03-02T14:31:06.641Z,11.60
2019-03-02T14:34:02.966Z,11.60
2019-03-02T14:36:51.036Z,11.00
2019-03-02T14:39:39.398Z,10.90
2019-03-02T14:42:27.621Z,11.10
2019-03-02T14:45:34.704Z,11.20
2019-03-02T14:48:26.907Z,11.30
2019-03-02T14:51:02.904Z,11.10
2019-03-02T14:53:41.959Z,10.70
2019-03-02T14:56:29.261Z,10.90
2019-03-02T14:59:21.505Z,11.00
2019-03-02T15:01:57.947Z,10.90
2019-03-02T15:05:03.546Z,10.70
2019-03-02T15:07:41.384Z,11.00
2019-03-02T15:10:22.816Z,11.10
2019-03-02T15:13:13.460Z,11.30
2019-03-02T15:16:15.430Z,10.60
2019-03-02T15:19:06.582Z,10.60
2019-03-02T15:21:57.276Z,10.60
2019-03-02T15:25:04.156Z,10.40
2019-03-02T15:27:58.003Z,10.50
2019-03-02T15:30:46.044Z,10.50
2019-03-02T15:33:20.918Z,10.40
2019-03-02T15:36:01.465Z,10.20
2019-03-02T15:38:49.608Z,10.20
2019-03-02T15:41:37.965Z,10.20
2019-03-02T15:44:20.778Z,10.10
2019-03-02T15:47:17.483Z,10.30
2019-03-02T15:50:04.335Z,10.20
2019-03-02T15:52:43.855Z,10.30
2019-03-02T15:55:31.296Z,10.30
2019-03-02T15:58:15.649Z,10.30
2019-03-02T16:00:54.717Z,10.20
2019-03-02T16:03:49.115Z,10.00
2019-03-02T16:06:40.687Z,10.00
2019-03-02T16:09:20.610Z,10.10
2019-03-02T16:12:09.685Z,10.10
2019-03-02T16:15:04.197Z,10.10
2019-03-02T16:17:43.218Z,9.90
2019-03-02T16:20:27.132Z,9.90
2019-03-02T16:23:18.552Z,10.00
2019-03-02T16:25:55.960Z,10.10
2019-03-02T16:28:50.919Z,10.00
2019-03-02T16:31:41.296Z,10.00
2019-03-02T16:34:24.857Z,9.90
2019-03-02T16:37:13.102Z,9.80
2019-03-02T16:40:04.922Z,10.20
2019-03-02T16:42:49.988Z,10.20
2019-03-02T16:45:26.307Z,10.20
2019-03-02T16:48:08.444Z,10.00
2019-03-02T16:50:53.642Z,10.10
2019-03-02T16:53:49.132Z,10.10
2019-03-02T16:56:36.829Z,9.90
2019-03-02T16:59:12.475Z,9.80
2019-03-02T17:01:57.663Z,9.70
2019-03-02T17:04:45.277Z,9.60
2019-03-02T17:07:22.244Z,9.40
2019-03-02T17:10:12.036Z,9.40
2019-03-02T17:12:51.061Z,9.60
2019-03-02T17:15:42.268Z,9.60
2019-03-02T17:18:25.314Z,9.50
2019-03-02T17:21:00.227Z,9.60
2019-03-02T17:23:42.865Z,9.50
2019-03-02T17:26:28.021Z,9.60
2019-03-02T17:29:22.112Z,9.40
2019-03-02T17:32:04.685Z,9.50
2019-03-02T17:34:45.065Z,9.60
2019-03-02T17:37:39.917Z,9.50
2019-03-02T17:40:17.977Z,9.40
2019-03-02T17:43:03.576Z,9.40
2019-03-02T17:45:54.235Z,9.40
2019-03-02T17:48:31.868Z,9.30
2019-03-02T17:51:20.404Z,9.20
2019-03-02T17:53:59.804Z,9.20
2019-03-02T17:56:48.375Z,9.20
2019-03-02T17:59:35.577Z,9.10
2019-03-02T18:02:11.463Z,9.10
2019-03-02T18:05:00.346Z,9.10
2019-03-02T18:07:40.085Z,9.10
2019-03-02T18:10:20.124Z,9.20
2019-03-02T18:13:17.697Z,9.20
2019-03-02T18:16:06.520Z,9.20
2019-03-02T18:18:35.320Z,9.20
2019-03-02T18:21:04.648Z,9.20
2019-03-02T18:23:33.756Z,9.20
2019-03-02T18:26:03.677Z,9.20
2019-03-02T18:28:33.155Z,9.20
2019-03-02T18:31:03.069Z,9.30
2019-03-02T18:33:37.435Z,9.30
2019-03-02T18:36:09.902Z,9.20
2019-03-02T18:38:37.326Z,9.20
2019-03-02T18:41:06.825Z,9.00
2019-03-02T18:43:35.706Z,8.90
2019-03-02T18:46:04.636Z,8.90
2019-03-02T18:48:56.589Z,8.80
2019-03-02T18:51:34.839Z,8.80
2019-03-02T18:54:11.970Z,8.70
2019-03-02T18:56:42.727Z,8.70
2019-03-02T18:59:11.862Z,8.70
2019-03-02T19:01:41.769Z,8.70
2019-03-02T19:04:11.072Z,8.60
2019-03-02T19:06:40.272Z,8.50
2019-03-02T19:09:10.864Z,8.50
2019-03-02T19:11:40.156Z,8.50
2019-03-02T19:14:09.340Z,8.50
2019-03-02T19:16:39.133Z,8.30
2019-03-02T19:19:08.622Z,8.30
2019-03-02T19:21:37.590Z,8.20
2019-03-02T19:24:06.908Z,8.00
2019-03-02T19:26:36.006Z,7.90
2019-03-02T19:29:05.720Z,8.00
2019-03-02T19:31:35.356Z,8.00
2019-03-02T19:34:04.664Z,7.90
2019-03-02T19:36:34.481Z,8.00
2019-03-02T19:39:05.992Z,8.00
2019-03-02T19:41:35.286Z,8.10
2019-03-02T19:44:04.244Z,8.10
2019-03-02T19:46:33.376Z,8.10
2019-03-02T19:49:03.736Z,8.20
2019-03-02T19:51:32.895Z,8.20
2019-03-02T19:54:02.395Z,8.20
2019-03-02T19:56:32.208Z,8.10
2019-03-02T19:59:01.741Z,8.10
2019-03-02T20:01:30.946Z,8.10
2019-03-02T20:03:59.863Z,8.10
2019-03-02T20:06:29.403Z,8.20
2019-03-02T20:08:58.340Z,8.20
2019-03-02T20:11:27.648Z,8.20
2019-03-02T20:13:56.581Z,8.20
2019-03-02T20:16:25.800Z,8.20
2019-03-02T20:18:54.895Z,8.10
2019-03-02T20:21:24.002Z,8.10
2019-03-02T20:23:53.956Z,8.20
2019-03-02T20:26:22.955Z,8.20
2019-03-02T20:28:53.115Z,8.20
2019-03-02T20:31:22.002Z,8.30
2019-03-02T20:33:51.183Z,8.30
2019-03-02T20:36:20.095Z,8.30
2019-03-02T20:38:49.860Z,8.40
2019-03-02T20:41:19.004Z,8.40
2019-03-02T20:43:48.652Z,8.50
2019-03-02T20:46:18.529Z,8.50
2019-03-02T20:48:47.988Z,8.50
2019-03-02T20:51:17.592Z,8.60
2019-03-02T20:53:46.739Z,8.60
2019-03-02T20:56:15.908Z,8.60
2019-03-02T20:58:45.136Z,8.60
2019-03-02T21:01:14.740Z,8.60
2019-03-02T21:03:44.264Z,8.70
2019-03-02T21:06:13.256Z,8.70
2019-03-02T21:08:42.146Z,8.70
2019-03-02T21:11:11.418Z,8.60
2019-03-02T21:13:40.928Z,8.60
2019-03-02T21:16:10.339Z,8.70
2019-03-02T21:18:40.057Z,8.70
2019-03-02T21:21:09.340Z,8.60
2019-03-02T21:23:38.168Z,8.60
2019-03-02T21:26:07.135Z,8.60
2019-03-02T21:28:35.918Z,8.60
2019-03-02T21:31:05.649Z,8.60
2019-03-02T21:33:34.548Z,8.60
2019-03-02T21:36:03.850Z,8.70
2019-03-02T21:38:33.163Z,8.70
2019-03-02T21:41:04.631Z,8.60
2019-03-02T21:43:33.807Z,8.60
2019-03-02T21:46:03.100Z,8.60
2019-03-02T21:48:32.341Z,8.60
2019-03-02T21:51:01.660Z,8.70
2019-03-02T21:53:30.651Z,8.70
2019-03-02T21:56:00.092Z,8.70
2019-03-02T21:58:29.968Z,8.70
2019-03-02T22:00:59.382Z,8.70
2019-03-02T22:03:28.476Z,8.70
2019-03-02T22:05:57.386Z,8.70
2019-03-02T22:08:26.900Z,8.80
2019-03-02T22:11:00.262Z,8.80
2019-03-02T22:13:29.355Z,8.80
2019-03-02T22:15:58.914Z,8.80
2019-03-02T22:18:27.948Z,8.80
2019-03-02T22:20:57.675Z,8.70
2019-03-02T22:23:27.920Z,8.80
2019-03-02T22:25:57.055Z,8.80
2019-03-02T22:28:26.183Z,8.90
2019-03-02T22:30:55.590Z,8.80
2019-03-02T22:33:24.463Z,8.90
2019-03-02T22:35:53.671Z,8.90
2019-03-02T22:38:24.721Z,8.90
2019-03-02T22:40:54.003Z,8.80
2019-03-02T22:43:22.852Z,8.90
2019-03-02T22:45:52.017Z,8.90
2019-03-02T22:48:21.405Z,8.80
2019-03-02T22:50:50.704Z,9.00
2019-03-02T22:53:19.904Z,8.90
2019-03-02T22:55:48.820Z,8.90
2019-03-02T22:58:18.094Z,9.10
2019-03-02T23:01:17.636Z,9.10
2019-03-02T23:03:45.088Z,9.10
2019-03-02T23:06:14.254Z,8.80
2019-03-02T23:08:43.350Z,8.80
2019-03-02T23:11:12.634Z,8.80
2019-03-02T23:13:42.047Z,8.80
2019-03-02T23:16:10.995Z,8.90
2019-03-02T23:18:40.140Z,8.80
2019-03-02T23:21:09.104Z,8.80
2019-03-02T23:23:38.237Z,8.70
2019-03-02T23:26:07.190Z,8.70
2019-03-02T23:28:36.416Z,8.70
2019-03-02T23:31:05.359Z,8.70
2019-03-02T23:33:34.135Z,8.70
2019-03-02T23:36:04.932Z,8.60
2019-03-02T23:38:33.830Z,8.60
2019-03-02T23:41:05.419Z,8.60
2019-03-02T23:43:34.372Z,8.70
2019-03-02T23:46:04.623Z,8.70
2019-03-02T23:48:33.684Z,8.80
2019-03-02T23:51:02.456Z,8.80
2019-03-02T23:53:31.339Z,8.70
2019-03-02T23:56:04.587Z,8.80
2019-03-02T23:58:33.756Z,8.90
